createdAt,value
2017-09-22T00:02:23.949Z,61.05
2017-09-22T00:04:54.850Z,60.81
2017-09-22T00:07:26.268Z,61.03
2017-09-22T00:09:56.773Z,61.03
2017-09-22T00:12:27.300Z,60.84
2017-09-22T00:14:57.996Z,61.31
2017-09-22T00:17:39.726Z,61.25
2017-09-22T00:20:11.181Z,61.19
2017-09-22T00:22:41.832Z,61.06
2017-09-22T00:25:12.609Z,60.77
2017-09-22T00:27:47.523Z,60.98
2017-09-22T00:30:19.173Z,60.83
2017-09-22T00:32:50.923Z,61.30
2017-09-22T00:35:22.340Z,61.67
2017-09-22T00:37:53.022Z,61.54
2017-09-22T00:40:23.740Z,61.73
2017-09-22T00:42:55.131Z,61.80
2017-09-22T00:45:26.001Z,61.75
2017-09-22T00:47:57.709Z,61.34
2017-09-22T00:50:28.820Z,60.59
2017-09-22T00:53:02.272Z,60.87
2017-09-22T00:55:33.377Z,61.29
2017-09-22T00:58:04.422Z,61.10
2017-09-22T01:00:37.069Z,61.00
2017-09-22T01:03:08.974Z,60.98
2017-09-22T01:05:39.946Z,60.87
2017-09-22T01:08:11.144Z,60.68
2017-09-22T01:10:42.808Z,61.40
2017-09-22T01:13:14.007Z,61.42
2017-09-22T01:15:45.896Z,61.45
2017-09-22T01:18:17.022Z,61.90
2017-09-22T01:20:48.019Z,61.42
2017-09-22T01:23:20.289Z,61.07
2017-09-22T01:25:51.243Z,61.14
2017-09-22T01:28:25.736Z,61.07
2017-09-22T01:30:56.540Z,60.89
2017-09-22T01:33:27.738Z,60.97
2017-09-22T01:35:58.930Z,61.49
2017-09-22T01:38:30.414Z,61.83
2017-09-22T01:41:01.495Z,61.58
2017-09-22T01:43:36.666Z,61.25
2017-09-22T01:46:13.361Z,61.18
2017-09-22T01:48:45.463Z,60.80
2017-09-22T01:51:17.275Z,60.63
2017-09-22T01:53:49.234Z,61.15
2017-09-22T01:56:24.033Z,61.40
2017-09-22T01:58:55.888Z,61.28
2017-09-22T02:01:27.785Z,61.59
2017-09-22T02:04:01.496Z,61.90
2017-09-22T02:06:34.443Z,62.07
2017-09-22T02:09:10.604Z,62.68
2017-09-22T02:11:43.489Z,62.48
2017-09-22T02:14:19.097Z,62.18
2017-09-22T02:16:55.755Z,62.06
2017-09-22T02:19:27.951Z,61.84
2017-09-22T02:22:00.105Z,61.87
2017-09-22T02:24:32.174Z,61.80
2017-09-22T02:27:04.000Z,61.23
2017-09-22T02:29:37.543Z,61.12
2017-09-22T02:32:08.845Z,61.37
2017-09-22T02:34:44.893Z,61.52
2017-09-22T02:37:22.932Z,61.43
2017-09-22T02:39:56.101Z,60.89
2017-09-22T02:42:29.422Z,60.70
2017-09-22T02:45:03.760Z,60.94
2017-09-22T02:47:38.739Z,60.33
2017-09-22T02:50:09.750Z,60.24
2017-09-22T02:52:41.020Z,60.45
2017-09-22T02:55:13.034Z,60.28
2017-09-22T02:57:45.290Z,60.30
2017-09-22T03:00:16.764Z,60.64
2017-09-22T03:02:56.021Z,61.48
2017-09-22T03:05:37.423Z,61.68
2017-09-22T03:08:13.538Z,61.90
2017-09-22T03:10:44.872Z,62.14
2017-09-22T03:13:15.976Z,61.93
2017-09-22T03:15:47.445Z,61.49
2017-09-22T03:18:19.346Z,61.53
2017-09-22T03:23:36.527Z,61.73
2017-09-22T03:26:10.060Z,61.87
2017-09-22T03:28:43.864Z,62.00
2017-09-22T03:31:20.004Z,61.74
2017-09-22T03:33:57.701Z,61.66
2017-09-22T03:36:34.431Z,61.13
2017-09-22T03:39:11.178Z,61.14
2017-09-22T03:41:41.852Z,61.01
2017-09-22T03:44:13.648Z,61.15
2017-09-22T03:46:45.307Z,61.31
2017-09-22T03:49:16.737Z,61.42
2017-09-22T03:51:48.025Z,61.42
2017-09-22T03:54:20.343Z,60.78
2017-09-22T03:56:51.475Z,60.70
2017-09-22T03:59:23.519Z,60.53
2017-09-22T04:01:54.493Z,60.76
2017-09-22T04:04:25.842Z,60.92
2017-09-22T04:06:57.226Z,61.17
2017-09-22T04:09:29.001Z,61.18
2017-09-22T04:12:00.102Z,61.06
2017-09-22T04:14:31.882Z,60.88
2017-09-22T04:17:03.113Z,61.38
2017-09-22T04:19:34.772Z,61.42
2017-09-22T04:22:09.966Z,61.52
2017-09-22T04:24:41.957Z,61.48
2017-09-22T04:27:13.919Z,61.55
2017-09-22T04:29:45.138Z,61.07
2017-09-22T04:32:16.547Z,61.58
2017-09-22T04:34:47.826Z,61.72
2017-09-22T04:37:19.628Z,61.55
2017-09-22T04:39:51.175Z,61.06
2017-09-22T04:42:22.158Z,61.13
2017-09-22T04:44:54.800Z,61.01
2017-09-22T04:47:26.003Z,60.87
2017-09-22T04:49:57.324Z,61.08
2017-09-22T04:52:28.508Z,61.09
2017-09-22T04:54:59.549Z,61.03
2017-09-22T04:57:32.371Z,61.00
2017-09-22T05:00:03.993Z,61.05
2017-09-22T05:02:34.694Z,61.71
2017-09-22T05:05:06.633Z,61.07
2017-09-22T05:07:37.936Z,60.55
2017-09-22T05:10:09.335Z,60.67
2017-09-22T05:12:43.103Z,60.95
2017-09-22T05:15:14.131Z,60.81
2017-09-22T05:17:46.258Z,61.33
2017-09-22T05:20:18.753Z,61.71
2017-09-22T05:22:50.996Z,61.99
2017-09-22T05:25:22.040Z,62.51
2017-09-22T05:27:53.961Z,62.52
2017-09-22T05:30:25.557Z,62.46
2017-09-22T05:32:56.717Z,61.91
2017-09-22T05:35:27.752Z,61.37
2017-09-22T05:37:59.810Z,61.41
2017-09-22T05:40:32.498Z,61.35
2017-09-22T05:43:12.149Z,61.49
2017-09-22T05:45:43.015Z,61.88
2017-09-22T05:48:15.344Z,61.83
2017-09-22T05:50:46.850Z,61.78
2017-09-22T05:53:18.679Z,61.71
2017-09-22T05:55:49.668Z,61.54
2017-09-22T05:58:21.437Z,61.30
2017-09-22T06:00:53.329Z,61.37
2017-09-22T06:03:26.471Z,61.35
2017-09-22T06:05:58.311Z,61.11
2017-09-22T06:08:29.781Z,60.74
2017-09-22T06:11:01.256Z,60.50
2017-09-22T06:13:33.767Z,60.46
2017-09-22T06:16:05.495Z,60.23
2017-09-22T06:18:36.128Z,59.85
2017-09-22T06:21:06.692Z,59.69
2017-09-22T06:23:37.600Z,59.11
2017-09-22T06:26:09.091Z,59.04
2017-09-22T06:28:39.814Z,59.00
2017-09-22T06:31:10.531Z,58.67
2017-09-22T06:33:41.974Z,58.81
2017-09-22T06:36:13.165Z,59.08
2017-09-22T06:38:45.280Z,58.99
2017-09-22T06:41:17.436Z,59.29
2017-09-22T06:43:49.065Z,59.17
2017-09-22T06:46:20.042Z,59.00
2017-09-22T06:48:50.932Z,58.18
2017-09-22T06:51:22.433Z,58.03
2017-09-22T06:53:54.184Z,57.91
2017-09-22T06:56:24.875Z,57.18
2017-09-22T06:58:55.921Z,56.94
2017-09-22T07:01:27.351Z,56.44
2017-09-22T07:03:58.849Z,56.13
2017-09-22T07:06:30.008Z,56.16
2017-09-22T07:09:02.082Z,56.40
2017-09-22T07:11:34.064Z,56.23
2017-09-22T07:14:09.576Z,56.47
2017-09-22T07:16:41.531Z,56.09
2017-09-22T07:19:13.654Z,55.98
2017-09-22T07:21:45.385Z,56.11
2017-09-22T07:24:18.600Z,56.12
2017-09-22T07:26:50.094Z,55.90
2017-09-22T07:29:24.248Z,56.12
2017-09-22T07:31:55.402Z,56.36
2017-09-22T07:34:26.512Z,56.64
2017-09-22T07:36:59.513Z,57.00
2017-09-22T07:39:33.402Z,57.32
2017-09-22T07:42:06.523Z,57.56
2017-09-22T07:44:38.203Z,57.86
2017-09-22T07:47:09.917Z,58.37
2017-09-22T07:49:41.129Z,59.96
2017-09-22T07:52:13.001Z,60.37
2017-09-22T07:54:44.499Z,60.79
2017-09-22T07:57:16.692Z,59.97
2017-09-22T07:59:48.473Z,58.89
2017-09-22T08:02:20.803Z,58.33
2017-09-22T08:04:51.427Z,57.87
2017-09-22T08:07:23.062Z,58.97
2017-09-22T08:09:54.421Z,57.76
2017-09-22T08:12:26.641Z,56.58
2017-09-22T08:14:58.523Z,53.78
2017-09-22T08:17:31.251Z,53.55
2017-09-22T08:20:02.330Z,51.69
2017-09-22T08:22:35.934Z,51.21
2017-09-22T08:25:16.146Z,49.20
2017-09-22T08:27:50.048Z,48.82
2017-09-22T08:30:22.791Z,48.22
2017-09-22T08:32:53.675Z,48.59
2017-09-22T08:35:34.661Z,49.86
2017-09-22T08:38:12.238Z,47.06
2017-09-22T08:40:50.146Z,48.77
2017-09-22T08:43:21.434Z,48.37
2017-09-22T08:45:54.328Z,46.49
2017-09-22T08:48:28.401Z,47.10
2017-09-22T08:51:02.811Z,45.19
2017-09-22T08:53:53.527Z,46.48
2017-09-22T08:56:56.427Z,47.16
2017-09-22T08:59:45.333Z,47.58
2017-09-22T09:09:24.132Z,48.51
2017-09-22T09:20:06.508Z,48.27
2017-09-22T09:26:35.584Z,45.28
2017-09-22T09:29:08.249Z,43.25
2017-09-22T09:32:21.247Z,48.25
2017-09-22T09:46:26.185Z,48.03
2017-09-22T09:49:18.826Z,47.53
2017-09-22T09:55:10.370Z,43.71
2017-09-22T10:02:17.024Z,42.29
2017-09-22T10:05:02.678Z,42.80
2017-09-22T10:29:55.410Z,43.33
2017-09-22T10:50:14.697Z,41.00
2017-09-22T10:59:35.694Z,43.27
2017-09-22T11:02:15.622Z,41.90
2017-09-22T11:12:59.050Z,39.23
2017-09-22T11:20:33.407Z,40.53
2017-09-22T11:26:10.611Z,40.87
2017-09-22T11:28:44.154Z,42.55
2017-09-22T11:31:37.829Z,41.42
2017-09-22T11:34:21.030Z,41.43
2017-09-22T11:36:55.690Z,38.74
2017-09-22T11:40:03.808Z,37.92
2017-09-22T11:42:47.130Z,40.33
2017-09-22T11:45:28.270Z,39.94
2017-09-22T11:48:25.000Z,42.60
2017-09-22T12:02:51.078Z,40.61
2017-09-22T12:18:00.631Z,42.15
2017-09-22T12:21:10.346Z,40.90
2017-09-22T12:24:11.645Z,40.83
2017-09-22T12:35:28.425Z,36.76
2017-09-22T12:56:47.587Z,36.66
2017-09-22T13:03:19.830Z,35.90
2017-09-22T13:08:44.098Z,34.41
2017-09-22T13:15:01.519Z,37.31
2017-09-22T13:21:49.592Z,37.53
2017-09-22T13:24:21.550Z,36.13
2017-09-22T13:35:54.877Z,36.65
2017-09-22T13:38:49.051Z,35.32
2017-09-22T13:41:28.693Z,34.85
2017-09-22T13:44:04.921Z,35.12
2017-09-22T13:47:04.328Z,35.48
2017-09-22T13:49:35.902Z,36.00
2017-09-22T13:52:39.391Z,35.59
2017-09-22T14:07:17.589Z,37.15
2017-09-22T14:16:30.434Z,39.43
2017-09-22T14:23:07.948Z,39.17
2017-09-22T14:25:39.838Z,38.11
2017-09-22T14:28:46.674Z,38.86
2017-09-22T14:35:03.801Z,37.20
2017-09-22T14:37:35.446Z,38.29
2017-09-22T14:40:07.150Z,38.07
2017-09-22T14:43:32.322Z,37.31
2017-09-22T14:46:05.366Z,38.04
2017-09-22T14:48:37.921Z,36.06
2017-09-22T14:51:29.995Z,38.78
2017-09-22T14:54:01.760Z,39.53
2017-09-22T14:56:32.907Z,40.41
2017-09-22T14:59:06.464Z,40.93
2017-09-22T15:02:13.761Z,41.24
2017-09-22T15:04:45.946Z,41.70
2017-09-22T15:07:17.491Z,42.14
2017-09-22T15:09:49.997Z,42.46
2017-09-22T15:12:21.910Z,42.51
2017-09-22T15:14:55.632Z,41.61
2017-09-22T15:17:28.716Z,42.83
2017-09-22T15:20:00.717Z,43.34
2017-09-22T15:22:32.217Z,43.44
2017-09-22T15:25:04.187Z,44.38
2017-09-22T15:27:36.352Z,45.02
2017-09-22T15:30:54.122Z,45.79
2017-09-22T15:33:27.740Z,46.45
2017-09-22T15:35:58.579Z,46.54
2017-09-22T15:38:30.874Z,46.30
2017-09-22T15:43:28.668Z,50.21
2017-09-22T15:45:59.483Z,49.40
2017-09-22T15:48:33.491Z,50.47
2017-09-22T15:51:05.137Z,51.76
2017-09-22T15:53:37.124Z,52.93
2017-09-22T15:56:21.256Z,51.71
2017-09-22T15:59:15.705Z,52.35
2017-09-22T16:01:53.603Z,52.88
2017-09-22T16:04:26.018Z,53.19
2017-09-22T16:06:57.325Z,52.71
2017-09-22T16:09:31.248Z,52.22
2017-09-22T16:12:03.264Z,52.78
2017-09-22T16:14:36.076Z,51.74
2017-09-22T16:17:08.127Z,51.81
2017-09-22T16:19:39.393Z,51.69
2017-09-22T16:22:13.171Z,51.45
2017-09-22T16:24:45.266Z,50.73
2017-09-22T16:27:18.158Z,50.20
2017-09-22T16:29:50.489Z,51.98
2017-09-22T16:32:22.174Z,52.21
2017-09-22T16:34:54.864Z,53.71
2017-09-22T16:37:26.977Z,53.76
2017-09-22T16:39:59.434Z,53.23
2017-09-22T16:42:32.168Z,54.25
2017-09-22T16:45:06.416Z,53.27
2017-09-22T16:47:37.981Z,53.60
2017-09-22T16:50:14.175Z,54.82
2017-09-22T16:52:49.776Z,55.54
2017-09-22T16:55:23.157Z,55.31
2017-09-22T16:57:57.478Z,55.44
2017-09-22T17:00:30.609Z,55.72
2017-09-22T17:03:02.080Z,55.98
2017-09-22T17:05:33.931Z,56.21
2017-09-22T17:08:26.450Z,56.53
2017-09-22T17:10:58.485Z,56.72
2017-09-22T17:13:38.759Z,56.76
2017-09-22T17:16:14.481Z,57.03
2017-09-22T17:18:46.096Z,57.32
2017-09-22T17:21:16.903Z,57.11
2017-09-22T17:23:49.584Z,57.37
2017-09-22T17:26:20.464Z,57.25
2017-09-22T17:28:51.489Z,57.21
2017-09-22T17:31:22.174Z,57.39
2017-09-22T17:33:53.223Z,57.65
2017-09-22T17:36:24.607Z,57.75
2017-09-22T17:39:00.236Z,57.93
2017-09-22T17:41:31.912Z,57.95
2017-09-22T17:44:12.705Z,57.87
2017-09-22T17:46:45.790Z,58.29
2017-09-22T17:49:17.667Z,58.62
2017-09-22T17:51:49.707Z,58.41
2017-09-22T17:54:22.307Z,57.95
2017-09-22T17:56:55.526Z,57.76
2017-09-22T17:59:26.974Z,57.78
2017-09-22T18:01:58.804Z,58.10
2017-09-22T18:04:30.403Z,58.42
2017-09-22T18:07:02.653Z,58.14
2017-09-22T18:09:33.685Z,58.11
2017-09-22T18:12:03.945Z,58.28
2017-09-22T18:14:35.563Z,58.09
2017-09-22T18:17:08.385Z,58.53
2017-09-22T18:19:43.054Z,58.50
2017-09-22T18:22:20.067Z,58.63
2017-09-22T18:24:53.048Z,58.27
2017-09-22T18:27:30.658Z,58.52
2017-09-22T18:30:03.803Z,58.93
2017-09-22T18:32:37.977Z,59.00
2017-09-22T18:35:09.423Z,58.79
2017-09-22T18:37:41.537Z,59.01
2017-09-22T18:40:15.859Z,59.84
2017-09-22T18:42:47.178Z,59.78
2017-09-22T18:45:23.012Z,61.09
2017-09-22T18:48:09.130Z,61.45
2017-09-22T18:50:41.615Z,61.29
2017-09-22T18:53:12.738Z,60.78
2017-09-22T18:55:44.585Z,60.78
2017-09-22T18:58:23.686Z,60.82
2017-09-22T19:00:55.982Z,60.53
2017-09-22T19:03:27.907Z,60.17
2017-09-22T19:06:00.118Z,60.07
2017-09-22T19:08:33.974Z,59.80
2017-09-22T19:11:06.294Z,60.07
2017-09-22T19:13:38.307Z,60.49
2017-09-22T19:16:09.318Z,60.27
2017-09-22T19:18:44.398Z,60.46
2017-09-22T19:21:17.438Z,60.12
2017-09-22T19:23:50.057Z,60.34
2017-09-22T19:26:21.132Z,60.53
2017-09-22T19:29:08.775Z,60.87
2017-09-22T19:31:46.948Z,60.45
2017-09-22T19:34:21.523Z,60.41
2017-09-22T19:36:57.109Z,60.25
2017-09-22T19:39:30.921Z,59.92
2017-09-22T19:42:03.042Z,59.84
2017-09-22T19:44:38.778Z,59.56
2017-09-22T19:47:11.988Z,59.82
2017-09-22T19:49:43.527Z,59.98
2017-09-22T19:52:15.107Z,59.98
2017-09-22T19:54:49.523Z,60.01
2017-09-22T19:57:21.044Z,60.06
2017-09-22T19:59:54.975Z,59.93
2017-09-22T20:02:26.568Z,60.07
2017-09-22T20:04:59.536Z,59.92
2017-09-22T20:07:38.057Z,60.07
2017-09-22T20:10:21.405Z,60.18
2017-09-22T20:12:59.780Z,60.03
2017-09-22T20:15:34.381Z,60.32
2017-09-22T20:18:10.718Z,60.21
2017-09-22T20:20:43.871Z,60.30
2017-09-22T20:23:30.161Z,60.62
2017-09-22T20:26:06.869Z,60.42
2017-09-22T20:28:53.428Z,60.42
2017-09-22T20:31:25.218Z,60.22
2017-09-22T20:33:58.192Z,60.25
2017-09-22T20:36:31.241Z,60.06
2017-09-22T20:39:05.701Z,60.36
2017-09-22T20:41:47.590Z,60.25
2017-09-22T20:44:19.104Z,60.13
2017-09-22T20:46:53.666Z,59.98
2017-09-22T20:49:29.447Z,59.86
2017-09-22T20:52:06.179Z,59.78
2017-09-22T20:54:37.841Z,59.83
2017-09-22T20:57:08.986Z,59.58
2017-09-22T20:59:41.064Z,59.75
2017-09-22T21:02:12.416Z,59.90
2017-09-22T21:04:43.135Z,60.17
2017-09-22T21:07:15.645Z,60.34
2017-09-22T21:09:47.227Z,60.06
2017-09-22T21:12:19.135Z,59.98
2017-09-22T21:14:50.619Z,59.85
2017-09-22T21:17:22.478Z,59.60
2017-09-22T21:19:54.806Z,58.95
2017-09-22T21:22:26.719Z,59.13
2017-09-22T21:25:16.383Z,59.27
2017-09-22T21:27:53.532Z,59.39
2017-09-22T21:30:26.343Z,59.58
2017-09-22T21:32:58.986Z,59.75
2017-09-22T21:35:29.604Z,59.95
2017-09-22T21:38:00.227Z,60.34
2017-09-22T21:40:37.111Z,59.68
2017-09-22T21:43:09.621Z,59.72
2017-09-22T21:45:43.641Z,59.55
2017-09-22T21:48:14.997Z,59.71
2017-09-22T21:50:46.991Z,60.23
2017-09-22T21:53:19.192Z,60.30
2017-09-22T21:55:52.546Z,60.41
2017-09-22T21:58:25.245Z,60.06
2017-09-22T22:00:57.240Z,60.21
2017-09-22T22:03:33.659Z,61.21
2017-09-22T22:06:11.484Z,60.99
2017-09-22T22:08:48.346Z,60.61
2017-09-22T22:11:19.657Z,60.68
2017-09-22T22:13:50.939Z,60.46
2017-09-22T22:16:22.422Z,60.77
2017-09-22T22:18:53.482Z,60.87
2017-09-22T22:21:27.049Z,61.01
2017-09-22T22:24:08.068Z,61.10
2017-09-22T22:26:40.691Z,61.08
2017-09-22T22:29:31.564Z,61.37
2017-09-22T22:32:04.368Z,61.19
2017-09-22T22:34:36.514Z,60.83
2017-09-22T22:37:10.245Z,60.69
2017-09-22T22:39:41.388Z,60.68
2017-09-22T22:42:14.703Z,60.63
2017-09-22T22:44:49.021Z,60.23
2017-09-22T22:47:22.059Z,60.34
2017-09-22T22:49:54.791Z,60.43
2017-09-22T22:52:26.664Z,60.60
2017-09-22T22:54:58.943Z,60.89
2017-09-22T22:57:30.084Z,61.24
2017-09-22T23:00:02.769Z,61.46
2017-09-22T23:02:37.934Z,61.25
2017-09-22T23:05:10.984Z,61.26
2017-09-22T23:07:42.065Z,61.33
2017-09-22T23:10:13.653Z,61.13
2017-09-22T23:12:44.604Z,61.61
2017-09-22T23:15:16.411Z,61.24
2017-09-22T23:17:49.169Z,60.62
2017-09-22T23:20:19.705Z,60.54
2017-09-22T23:22:51.742Z,60.27
2017-09-22T23:25:23.278Z,60.19
2017-09-22T23:27:54.397Z,60.19
2017-09-22T23:30:25.381Z,60.36
2017-09-22T23:32:56.623Z,60.51
2017-09-22T23:35:27.323Z,60.22
2017-09-22T23:37:59.205Z,60.43
2017-09-22T23:40:29.752Z,60.39
2017-09-22T23:43:00.718Z,60.41
2017-09-22T23:45:31.490Z,60.48
2017-09-22T23:48:03.140Z,60.49
2017-09-22T23:50:34.299Z,60.57
2017-09-22T23:53:06.297Z,60.31
2017-09-22T23:55:36.255Z,60.17
2017-09-22T23:58:08.201Z,60.08
